Milroy, Minnesota
Current Conditions -  °F | °C
As of 6:33 AM on Monday 24 Nov 2014 (Local Time) from KTKC Reporting Station
Light Snow Light Snow  
Wind Chill:   Ceiling: 1700
Heat Index: 19°   Visibility: 10mi
Dew Point: 13°   Wind: 26mph
Humidity: 79%   Direction: 320°NW
Pressure: 29.52"   Gusts: 37mph
Location:  44.42°N, 95.55°W
Report Text: KTKC 241233Z AUTO 32023G32KT 10SM -SN BKN017 OVC023 M07/M10 A2952 RMK AO2 T10751105
Loading
Personal Weather Stations






























Interactive Weather Map New forecast layout! Learn more

10-Day Weather Forecast

Advertisements
Track Severe Weather on mobile